Time;durP1;ratioP1;P1;durP2;ratioP2;P2;SDS_P1;SDS_P2;PMS_P1;PMS_P2;Temp;Humidity;BMP_temperature;BMP_pressure;BME280_temperature;BME280_humidity;BME280_pressure;Samples;Min_cycle;Max_cycle;Signal;HPM_P1;HPM_P2
2021/07/31 00:00:47;;;;;;;4.40;2.10;;;;;;;24.36;47.00;99681.37;4420280;32;20061;-68
2021/07/31 00:03:13;;;;;;;2.55;1.60;;;;;;;24.40;46.93;99684.69;4422269;32;20026;-68
2021/07/31 00:05:38;;;;;;;5.53;2.00;;;;;;;24.54;47.20;99686.16;4421528;32;20021;-68
2021/07/31 00:08:04;;;;;;;2.83;1.73;;;;;;;24.60;46.78;99681.06;4419947;32;20050;-68
2021/07/31 00:10:30;;;;;;;1.80;1.60;;;;;;;24.58;46.99;99686.56;4422363;32;20038;-68
2021/07/31 00:12:56;;;;;;;4.32;1.70;;;;;;;24.65;46.74;99679.41;4420274;32;20060;-68
2021/07/31 00:15:21;;;;;;;3.30;1.70;;;;;;;24.58;46.30;99682.94;4421423;32;20465;-68
2021/07/31 00:17:47;;;;;;;3.12;1.85;;;;;;;24.48;46.75;99688.41;4418258;32;20414;-68
2021/07/31 00:20:13;;;;;;;4.90;2.10;;;;;;;24.46;46.58;99688.22;4418833;32;20034;-68
2021/07/31 00:22:39;;;;;;;4.12;2.10;;;;;;;24.27;47.07;99690.47;4421007;32;20190;-68
2021/07/31 00:25:05;;;;;;;2.58;1.60;;;;;;;24.14;46.98;99684.78;4420408;32;20385;-68
2021/07/31 00:27:31;;;;;;;3.65;1.95;;;;;;;24.26;47.06;99696.78;4419596;32;20035;-68
2021/07/31 00:29:56;;;;;;;3.25;2.17;;;;;;;24.15;47.09;99694.19;4419040;32;20065;-68
2021/07/31 00:32:22;;;;;;;2.22;1.85;;;;;;;24.06;47.42;99691.78;4418056;32;20100;-68
2021/07/31 00:34:47;;;;;;;4.87;2.20;;;;;;;23.98;47.54;99706.06;4423902;32;20112;-68
2021/07/31 00:37:13;;;;;;;3.20;2.50;;;;;;;23.92;47.53;99693.88;4420308;32;20409;-68
2021/07/31 00:39:39;;;;;;;4.62;2.50;;;;;;;23.76;47.80;99703.63;4420019;32;20500;-68
2021/07/31 00:42:06;;;;;;;4.90;2.45;;;;;;;23.84;47.68;99698.00;4422275;32;20523;-68
2021/07/31 00:44:31;;;;;;;3.15;2.28;;;;;;;23.89;47.84;99697.88;4424331;32;20425;-68
2021/07/31 00:46:57;;;;;;;5.00;3.10;;;;;;;23.72;48.05;99705.31;4420431;32;20065;-68
2021/07/31 00:49:23;;;;;;;3.78;2.62;;;;;;;23.75;48.12;99707.06;4418479;32;20130;-68
2021/07/31 00:51:49;;;;;;;4.60;2.90;;;;;;;23.64;48.04;99701.53;4422615;32;20402;-68
2021/07/31 00:54:15;;;;;;;4.87;2.53;;;;;;;23.61;47.85;99703.44;4419184;32;20042;-68
2021/07/31 00:56:43;;;;;;;5.57;2.70;;;;;;;23.71;47.66;99706.63;4421299;32;20045;-68
2021/07/31 00:59:10;;;;;;;5.50;2.83;;;;;;;23.67;47.75;99709.84;4422931;32;20058;-68
2021/07/31 01:01:36;;;;;;;5.12;2.72;;;;;;;23.83;47.57;99713.69;4421444;32;20073;-67
2021/07/31 01:04:01;;;;;;;4.70;2.85;;;;;;;23.48;48.14;99709.94;4419749;32;20073;-68
2021/07/31 01:06:27;;;;;;;4.68;3.33;;;;;;;23.61;47.90;99714.13;4421563;32;20065;-68
2021/07/31 01:08:53;;;;;;;4.57;2.92;;;;;;;23.79;47.75;99708.28;4420001;32;20174;-68
2021/07/31 01:11:18;;;;;;;5.57;2.87;;;;;;;23.53;48.19;99711.94;4419501;32;20060;-68
2021/07/31 01:13:45;;;;;;;4.25;2.85;;;;;;;23.80;47.59;99700.44;4422047;32;20490;-67
2021/07/31 01:16:11;;;;;;;6.37;3.33;;;;;;;23.67;47.86;99706.19;4420103;32;20042;-67
2021/07/31 01:18:38;;;;;;;8.93;3.30;;;;;;;23.66;47.91;99701.78;4419377;32;20121;-67
2021/07/31 01:21:04;;;;;;;4.50;2.87;;;;;;;23.61;48.28;99708.41;4419451;32;20474;-67
2021/07/31 01:23:29;;;;;;;3.42;2.85;;;;;;;23.65;48.01;99706.72;4418633;32;20064;-67
2021/07/31 01:25:57;;;;;;;5.37;2.85;;;;;;;23.58;48.06;99695.91;4418208;32;20034;-67
2021/07/31 01:28:23;;;;;;;7.97;3.70;;;;;;;23.58;48.05;99701.66;4419120;32;20072;-67
2021/07/31 01:30:49;;;;;;;5.35;2.97;;;;;;;23.56;48.07;99710.06;4422550;32;20069;-68
2021/07/31 01:33:15;;;;;;;5.12;3.10;;;;;;;23.54;48.12;99709.84;4421571;32;20073;-68
2021/07/31 01:35:41;;;;;;;5.35;2.75;;;;;;;23.35;48.31;99706.31;4418984;32;20026;-68
2021/07/31 01:38:07;;;;;;;6.87;3.05;;;;;;;23.37;48.55;99704.44;4419245;32;20157;-67
2021/07/31 01:40:32;;;;;;;4.93;2.83;;;;;;;23.38;48.21;99710.97;4420677;32;20125;-69
2021/07/31 01:42:58;;;;;;;4.15;2.95;;;;;;;23.48;47.84;99709.19;4419503;32;20074;-67
2021/07/31 01:45:25;;;;;;;6.28;2.92;;;;;;;23.31;48.30;99712.37;4417122;32;20077;-69
2021/07/31 01:47:51;;;;;;;4.87;2.92;;;;;;;23.28;48.42;99716.34;4417950;32;20085;-70
2021/07/31 01:50:17;;;;;;;3.53;2.83;;;;;;;23.28;48.36;99713.47;4420411;32;20090;-69
2021/07/31 01:52:44;;;;;;;5.45;3.42;;;;;;;23.30;48.39;99710.06;4418536;32;20212;-69
2021/07/31 01:55:12;;;;;;;5.97;2.92;;;;;;;23.38;48.26;99713.84;4419535;32;20069;-69
2021/07/31 01:57:38;;;;;;;5.03;2.87;;;;;;;23.37;48.24;99713.06;4418731;32;20102;-67
2021/07/31 02:00:05;;;;;;;4.62;2.90;;;;;;;23.25;47.92;99699.44;4419429;32;20022;-70
2021/07/31 02:02:31;;;;;;;4.20;2.67;;;;;;;23.72;47.19;99702.44;4418441;32;20088;-67
2021/07/31 02:04:57;;;;;;;3.95;2.85;;;;;;;23.65;47.14;99700.25;4419400;32;20029;-69
2021/07/31 02:07:23;;;;;;;4.82;2.80;;;;;;;23.77;47.05;99699.44;4419548;32;20573;-69
2021/07/31 02:09:49;;;;;;;3.50;2.58;;;;;;;23.66;47.10;99702.56;4416544;32;20478;-68
2021/07/31 02:12:15;;;;;;;5.12;2.90;;;;;;;23.72;46.67;99702.44;4418578;32;20496;-68
2021/07/31 02:14:40;;;;;;;4.28;2.72;;;;;;;23.69;46.43;99704.31;4420171;32;20037;-68
2021/07/31 02:17:06;;;;;;;7.15;2.85;;;;;;;23.90;46.23;99710.91;4420529;32;20526;-68
2021/07/31 02:19:32;;;;;;;5.00;2.95;;;;;;;23.96;45.86;99697.22;4416762;32;20073;-68
2021/07/31 02:22:00;;;;;;;5.10;2.65;;;;;;;23.99;45.83;99706.84;4418578;32;20069;-68
2021/07/31 02:24:26;;;;;;;3.75;2.53;;;;;;;24.09;45.83;99700.06;4417739;32;20108;-68
2021/07/31 02:26:51;;;;;;;5.00;2.80;;;;;;;23.94;45.88;99702.72;4418154;32;20038;-68
2021/07/31 02:29:17;;;;;;;5.43;2.80;;;;;;;23.86;46.03;99698.97;4422337;32;20124;-68
2021/07/31 02:31:43;;;;;;;6.30;2.60;;;;;;;24.09;45.63;99702.16;4420470;32;20092;-68
2021/07/31 02:34:09;;;;;;;4.12;2.70;;;;;;;23.92;45.63;99704.59;4418410;32;20038;-68
2021/07/31 02:36:35;;;;;;;5.53;3.37;;;;;;;24.11;45.38;99705.25;4424041;32;20087;-68
2021/07/31 02:39:01;;;;;;;4.45;2.40;;;;;;;24.01;45.64;99696.31;4422880;32;20419;-68
2021/07/31 02:41:26;;;;;;;4.12;2.40;;;;;;;23.94;45.55;99704.81;4420775;32;20195;-68
2021/07/31 02:43:52;;;;;;;4.05;2.47;;;;;;;24.06;45.58;99698.31;4421197;32;20577;-68
2021/07/31 02:46:18;;;;;;;4.65;2.55;;;;;;;24.06;45.59;99701.19;4422507;32;20540;-68
2021/07/31 02:48:43;;;;;;;3.47;2.40;;;;;;;24.02;45.75;99697.84;4420708;32;20034;-68
2021/07/31 02:51:11;;;;;;;4.22;2.60;;;;;;;24.16;45.48;99701.47;4421396;32;20211;-68
2021/07/31 02:53:37;;;;;;;5.95;2.70;;;;;;;24.36;45.30;99700.75;4423147;32;20052;-68
2021/07/31 02:56:04;;;;;;;3.78;3.03;;;;;;;24.27;45.33;99701.97;4422288;32;20077;-68
2021/07/31 02:58:30;;;;;;;3.25;2.62;;;;;;;24.37;45.42;99696.53;4421931;32;20042;-68
2021/07/31 03:00:56;;;;;;;4.07;2.42;;;;;;;24.29;45.67;99698.56;4419025;32;20067;-68
2021/07/31 03:03:22;;;;;;;5.35;2.90;;;;;;;24.30;45.72;99703.00;4422176;32;20441;-68
2021/07/31 03:06:03;;;;;;;4.50;3.20;;;;;;;24.19;46.06;99700.34;4420335;32;20089;-68
2021/07/31 03:08:29;;;;;;;3.55;2.53;;;;;;;24.42;46.04;99690.66;4418920;32;20136;-68
2021/07/31 03:10:58;;;;;;;5.15;2.60;;;;;;;24.17;45.76;99700.91;4422209;32;20553;-68
2021/07/31 03:13:24;;;;;;;6.32;3.20;;;;;;;24.36;45.58;99697.88;4419224;32;20046;-68
2021/07/31 03:15:51;;;;;;;7.28;2.83;;;;;;;24.09;46.23;99699.28;4422165;32;20060;-68
2021/07/31 03:18:17;;;;;;;4.72;2.58;;;;;;;24.14;46.21;99704.16;4421574;32;20107;-68
2021/07/31 03:20:46;;;;;;;3.70;2.78;;;;;;;23.99;46.43;99692.47;4421425;32;20395;-68
2021/07/31 03:23:13;;;;;;;6.20;2.90;;;;;;;24.28;46.03;99686.28;4421381;32;20110;-68
2021/07/31 03:25:39;;;;;;;5.97;2.85;;;;;;;24.23;46.11;99695.81;4421185;32;20382;-68
2021/07/31 03:28:05;;;;;;;4.47;3.00;;;;;;;23.98;46.50;99690.91;4418897;32;20073;-68
2021/07/31 03:30:31;;;;;;;5.15;2.65;;;;;;;24.12;46.35;99687.47;4423491;32;20426;-68
2021/07/31 03:32:56;;;;;;;5.95;2.80;;;;;;;24.22;45.77;99700.03;4421694;32;20045;-68
2021/07/31 03:35:22;;;;;;;7.35;3.25;;;;;;;24.28;46.04;99699.88;4420917;32;20540;-68
2021/07/31 03:37:48;;;;;;;7.20;2.72;;;;;;;24.31;45.77;99699.56;4419857;32;20030;-68
2021/07/31 03:40:14;;;;;;;5.47;3.15;;;;;;;24.44;45.74;99699.50;4421174;32;20038;-68
2021/07/31 03:42:40;;;;;;;7.87;2.95;;;;;;;24.38;45.86;99701.72;4421479;32;20140;-68
2021/07/31 03:45:06;;;;;;;5.90;2.97;;;;;;;24.52;45.80;99702.44;4416913;32;20070;-68
2021/07/31 03:47:32;;;;;;;5.70;3.10;;;;;;;24.59;45.75;99688.16;4419363;32;20115;-68
2021/07/31 03:49:59;;;;;;;9.07;3.33;;;;;;;24.54;45.77;99694.03;4419928;32;20397;-68
2021/07/31 03:52:26;;;;;;;9.55;3.20;;;;;;;24.69;45.71;99689.22;4421362;32;20078;-68
2021/07/31 03:54:52;;;;;;;6.22;3.30;;;;;;;24.36;46.39;99695.00;4419100;32;20031;-68
2021/07/31 03:57:18;;;;;;;6.82;3.05;;;;;;;24.30;46.44;99689.37;4422437;32;20132;-68
2021/07/31 03:59:43;;;;;;;4.62;3.10;;;;;;;24.31;46.42;99688.06;4420344;32;20042;-68
2021/07/31 04:02:09;;;;;;;5.43;2.83;;;;;;;24.49;45.96;99686.31;4418238;32;20433;-68
2021/07/31 04:04:36;;;;;;;6.55;2.80;;;;;;;24.32;46.44;99697.44;4422120;32;20125;-68
2021/07/31 04:07:01;;;;;;;5.43;2.95;;;;;;;24.58;45.76;99695.22;4422097;32;20184;-68
2021/07/31 04:09:27;;;;;;;8.32;2.50;;;;;;;24.63;45.87;99693.53;4419187;32;20068;-68
2021/07/31 04:11:53;;;;;;;6.75;2.92;;;;;;;24.64;45.85;99698.75;4420265;32;20038;-68
2021/07/31 04:14:18;;;;;;;7.07;2.80;;;;;;;24.60;45.66;99703.28;4421051;32;20042;-68
2021/07/31 04:16:44;;;;;;;10.60;3.15;;;;;;;24.48;46.29;99699.91;4418108;32;20128;-68
2021/07/31 04:19:11;;;;;;;9.07;3.00;;;;;;;24.58;46.25;99703.09;4421474;32;20544;-68
2021/07/31 04:21:37;;;;;;;8.68;2.50;;;;;;;24.59;46.05;99701.75;4422950;32;20118;-68
2021/07/31 04:24:03;;;;;;;6.47;2.20;;;;;;;24.56;46.05;99700.00;4418573;32;20093;-68
2021/07/31 04:26:31;;;;;;;3.55;2.00;;;;;;;24.58;45.99;99700.22;4417990;32;20083;-68
2021/07/31 04:28:57;;;;;;;5.53;2.30;;;;;;;24.29;46.74;99702.22;4419837;32;20460;-68
2021/07/31 04:31:24;;;;;;;4.50;2.30;;;;;;;24.42;46.32;99698.53;4420425;32;20030;-68
2021/07/31 04:33:53;;;;;;;6.40;2.10;;;;;;;24.45;46.41;99688.78;4423035;32;20060;-68
2021/07/31 04:36:19;;;;;;;3.72;2.12;;;;;;;24.74;45.90;99696.94;4419104;32;20077;-68
2021/07/31 04:38:45;;;;;;;6.25;2.00;;;;;;;24.52;46.30;99697.47;4418923;32;20077;-68
2021/07/31 04:41:11;;;;;;;3.75;2.10;;;;;;;24.73;45.69;99703.25;4419253;32;20021;-68
2021/07/31 04:43:37;;;;;;;3.40;2.15;;;;;;;24.62;46.04;99703.50;4421238;32;20033;-68
2021/07/31 04:46:03;;;;;;;2.72;1.90;;;;;;;24.41;46.44;99709.25;4417585;32;20115;-68
2021/07/31 04:48:28;;;;;;;2.90;1.80;;;;;;;24.76;45.79;99711.53;4417819;32;20038;-68
2021/07/31 04:51:03;;;;;;;2.90;1.62;;;;;;;24.78;45.76;99706.00;4418437;32;20056;-68
2021/07/31 04:53:29;;;;;;;7.37;2.30;;;;;;;25.22;44.96;99710.56;4418989;32;21671;-68
2021/07/31 04:55:56;;;;;;;4.55;1.70;;;;;;;24.99;45.34;99714.62;4418797;32;20049;-68
2021/07/31 04:58:22;;;;;;;4.95;2.42;;;;;;;24.83;45.23;99710.84;4420825;32;20041;-68
2021/07/31 05:00:49;;;;;;;5.75;1.90;;;;;;;24.12;46.58;99721.19;4419090;32;20460;-68
2021/07/31 05:03:16;;;;;;;6.82;2.25;;;;;;;24.45;46.03;99717.53;4418824;32;20053;-68
2021/07/31 05:05:43;;;;;;;2.85;2.10;;;;;;;23.98;46.86;99717.56;4420173;32;20076;-68
2021/07/31 05:08:09;;;;;;;7.25;2.28;;;;;;;24.46;46.12;99725.59;4417068;32;20373;-69
2021/07/31 05:10:40;;;;;;;5.62;2.00;;;;;;;24.47;45.85;99730.00;4418061;32;20220;-68
2021/07/31 05:13:06;;;;;;;4.65;2.42;;;;;;;24.66;45.29;99733.50;4416173;32;20068;-68
2021/07/31 05:15:31;;;;;;;5.70;2.40;;;;;;;24.28;46.10;99735.19;4416402;32;20425;-68
2021/07/31 05:17:57;;;;;;;3.65;2.37;;;;;;;24.67;45.38;99735.03;4417207;32;20097;-68
2021/07/31 05:20:23;;;;;;;6.22;2.55;;;;;;;24.77;45.07;99732.44;4419070;32;20100;-68
2021/07/31 05:22:48;;;;;;;6.00;2.70;;;;;;;24.82;44.89;99734.44;4418700;32;20037;-68
2021/07/31 05:25:14;;;;;;;6.75;2.70;;;;;;;25.00;44.66;99739.97;4417423;32;20438;-68
2021/07/31 05:27:39;;;;;;;4.95;2.25;;;;;;;25.01;44.66;99747.25;4419434;32;20130;-68
2021/07/31 05:30:06;;;;;;;5.97;2.50;;;;;;;24.85;44.85;99751.31;4420210;32;20237;-69
2021/07/31 05:32:34;;;;;;;8.38;3.00;;;;;;;24.91;44.90;99746.22;4417456;32;20026;-68
2021/07/31 05:35:01;;;;;;;6.07;2.37;;;;;;;25.15;44.34;99756.59;4417623;32;20436;-68
2021/07/31 05:37:26;;;;;;;7.15;2.20;;;;;;;24.82;44.58;99748.81;4418555;32;20406;-68
2021/07/31 05:39:52;;;;;;;5.40;2.53;;;;;;;24.95;44.29;99755.25;4419312;32;20033;-68
2021/07/31 05:42:18;;;;;;;6.55;2.45;;;;;;;25.09;44.09;99759.63;4420812;32;20617;-68
2021/07/31 05:44:43;;;;;;;3.97;1.80;;;;;;;24.90;43.98;99761.94;4417036;32;20483;-68
2021/07/31 05:47:11;;;;;;;3.72;1.98;;;;;;;25.05;43.75;99761.31;4419265;32;20056;-68
2021/07/31 05:49:36;;;;;;;4.35;2.05;;;;;;;25.02;43.83;99765.31;4418446;32;20662;-68
2021/07/31 05:52:05;;;;;;;3.30;1.85;;;;;;;25.12;43.44;99758.50;4416305;32;20089;-68
2021/07/31 05:54:31;;;;;;;5.05;2.33;;;;;;;25.08;43.77;99760.97;4414867;32;20077;-68
2021/07/31 05:56:56;;;;;;;6.65;2.00;;;;;;;24.92;43.93;99764.25;4417312;32;21266;-68
2021/07/31 05:59:22;;;;;;;9.32;2.00;;;;;;;25.47;42.97;99764.94;4415067;32;20559;-68
2021/07/31 06:01:48;;;;;;;2.58;1.87;;;;;;;25.60;42.90;99761.94;4420678;32;20563;-68
2021/07/31 06:04:14;;;;;;;6.28;1.60;;;;;;;25.57;42.77;99760.97;4418890;32;20439;-68
2021/07/31 06:06:39;;;;;;;11.68;2.22;;;;;;;25.72;42.29;99772.59;4419537;32;21578;-68
2021/07/31 06:09:05;;;;;;;6.43;2.50;;;;;;;25.89;41.83;99777.91;4413721;32;20113;-68
2021/07/31 06:11:31;;;;;;;6.03;1.90;;;;;;;26.10;41.15;99784.38;4416424;32;20106;-68
2021/07/31 06:13:57;;;;;;;7.80;2.20;;;;;;;26.11;41.07;99786.69;4417160;32;20140;-68
2021/07/31 06:16:25;;;;;;;5.85;2.10;;;;;;;26.20;41.09;99785.41;4418347;32;20074;-68
2021/07/31 06:18:51;;;;;;;4.00;1.87;;;;;;;26.13;41.34;99789.00;4418559;32;20059;-68
2021/07/31 06:21:17;;;;;;;6.45;2.30;;;;;;;26.34;40.80;99789.66;4418043;32;20027;-68
2021/07/31 06:23:44;;;;;;;5.20;2.00;;;;;;;26.32;40.86;99803.91;4418395;32;20095;-69
2021/07/31 06:26:10;;;;;;;3.70;2.37;;;;;;;26.15;41.29;99800.75;4421022;32;20150;-68
2021/07/31 06:28:36;;;;;;;4.85;2.60;;;;;;;26.61;40.31;99803.25;4417982;32;20049;-68
2021/07/31 06:31:02;;;;;;;6.78;2.10;;;;;;;26.51;40.17;99807.25;4416232;32;20482;-68
2021/07/31 06:33:27;;;;;;;3.80;1.90;;;;;;;26.44;40.45;99799.31;4417243;32;20104;-68
2021/07/31 06:35:53;;;;;;;8.55;2.10;;;;;;;26.51;40.08;99801.47;4421646;32;20255;-68
2021/07/31 06:38:19;;;;;;;5.30;2.17;;;;;;;26.63;40.08;99806.34;4420527;32;20152;-68
2021/07/31 06:40:45;;;;;;;3.65;1.80;;;;;;;26.78;39.77;99809.28;4412896;32;20399;-68
2021/07/31 06:43:11;;;;;;;3.70;2.05;;;;;;;26.63;40.04;99815.00;4417871;32;20464;-68
2021/07/31 06:45:37;;;;;;;9.65;2.35;;;;;;;26.75;40.02;99806.78;4417849;32;20133;-68
2021/07/31 06:48:03;;;;;;;6.37;2.15;;;;;;;26.76;40.11;99805.44;4417535;32;20621;-68
2021/07/31 06:50:31;;;;;;;4.57;1.73;;;;;;;26.85;40.02;99807.75;4418093;32;20795;-68
2021/07/31 06:52:57;;;;;;;4.18;2.03;;;;;;;26.64;40.28;99810.78;4419304;32;20157;-68
2021/07/31 06:55:22;;;;;;;3.87;1.62;;;;;;;26.58;40.31;99809.38;4419426;32;20095;-68
2021/07/31 06:57:48;;;;;;;3.25;2.00;;;;;;;26.43;40.60;99817.97;4416630;32;20065;-68
2021/07/31 07:00:15;;;;;;;5.12;1.80;;;;;;;25.89;41.66;99816.13;4416174;32;20053;-68
2021/07/31 07:02:41;;;;;;;4.57;1.65;;;;;;;26.39;40.94;99821.25;4421408;32;21794;-68
2021/07/31 07:05:07;;;;;;;6.82;1.55;;;;;;;26.60;40.41;99821.13;4419339;32;20120;-68
2021/07/31 07:07:33;;;;;;;4.82;1.70;;;;;;;26.70;40.47;99822.94;4419619;32;20084;-68
2021/07/31 07:09:59;;;;;;;4.32;1.73;;;;;;;26.45;40.55;99823.97;4415545;32;20108;-68
2021/07/31 07:12:25;;;;;;;4.80;1.65;;;;;;;26.32;40.65;99830.63;4418504;32;20414;-68
2021/07/31 07:14:51;;;;;;;2.28;1.42;;;;;;;25.94;41.33;99832.50;4417527;32;20616;-68
2021/07/31 07:17:17;;;;;;;5.35;1.80;;;;;;;25.72;41.85;99833.13;4420734;32;20068;-68
2021/07/31 07:19:43;;;;;;;5.43;1.62;;;;;;;25.98;41.26;99835.81;4419286;32;20076;-68
2021/07/31 07:22:08;;;;;;;4.12;1.50;;;;;;;25.72;41.61;99838.09;4418954;32;20435;-68
2021/07/31 07:24:35;;;;;;;3.33;1.62;;;;;;;25.85;41.60;99833.03;4421490;32;20141;-68
2021/07/31 07:27:03;;;;;;;2.80;1.60;;;;;;;26.13;41.05;99838.78;4420384;32;20077;-69
2021/07/31 07:29:29;;;;;;;2.25;1.60;;;;;;;26.38;40.70;99839.13;4418269;32;20415;-68
2021/07/31 07:31:55;;;;;;;2.85;1.52;;;;;;;26.16;40.91;99836.88;4423452;32;20065;-68
2021/07/31 07:34:21;;;;;;;2.67;1.60;;;;;;;26.46;40.04;99842.81;4420849;32;20034;-68
2021/07/31 07:36:46;;;;;;;4.57;1.42;;;;;;;26.92;38.95;99839.53;4421227;32;20340;-68
2021/07/31 07:39:13;;;;;;;6.37;2.20;;;;;;;27.33;38.82;99846.38;4419395;32;20075;-69
2021/07/31 07:41:39;;;;;;;2.78;1.55;;;;;;;27.67;38.24;99850.41;4420128;32;20144;-68
2021/07/31 07:44:05;;;;;;;5.40;1.55;;;;;;;27.73;37.49;99847.34;4420293;32;20038;-69
2021/07/31 07:46:30;;;;;;;2.97;1.65;;;;;;;27.93;36.71;99850.06;4424906;32;20112;-69
2021/07/31 07:48:56;;;;;;;4.00;1.40;;;;;;;27.69;37.30;99853.50;4421128;32;20382;-69
2021/07/31 07:51:22;;;;;;;3.03;1.30;;;;;;;27.58;36.78;99856.78;4418474;32;20090;-68
2021/07/31 07:53:48;;;;;;;3.00;1.77;;;;;;;27.49;37.46;99856.59;4421376;32;20394;-69
2021/07/31 07:56:13;;;;;;;7.62;1.60;;;;;;;27.45;37.67;99859.09;4421420;32;20119;-69
2021/07/31 07:58:40;;;;;;;6.07;1.77;;;;;;;27.25;37.70;99857.94;4424000;32;20072;-69
2021/07/31 08:01:10;;;;;;;9.88;1.70;;;;;;;27.38;37.55;99856.97;4419635;32;20038;-68
2021/07/31 08:03:35;;;;;;;4.05;1.67;;;;;;;28.00;36.98;99848.47;4421291;32;20073;-68
2021/07/31 08:06:01;;;;;;;2.15;1.30;;;;;;;27.94;36.60;99854.47;4418844;32;20042;-68
2021/07/31 08:08:28;;;;;;;2.97;1.50;;;;;;;27.85;36.26;99860.06;4419237;32;20079;-68
2021/07/31 08:10:54;;;;;;;4.37;1.67;;;;;;;27.26;36.67;99862.34;4418165;32;20435;-68
2021/07/31 08:13:20;;;;;;;3.97;1.45;;;;;;;27.40;36.95;99855.06;4422584;32;20073;-68
2021/07/31 08:15:45;;;;;;;3.72;1.62;;;;;;;27.75;36.63;99856.97;4421975;32;20037;-68
2021/07/31 08:18:12;;;;;;;5.03;1.50;;;;;;;27.71;36.36;99865.28;4420959;32;20509;-68
2021/07/31 08:20:37;;;;;;;4.65;1.67;;;;;;;27.70;36.35;99854.28;4420261;32;20317;-69
2021/07/31 08:23:04;;;;;;;11.60;2.00;;;;;;;27.04;37.70;99857.28;4422877;32;20033;-68
2021/07/31 08:25:30;;;;;;;2.05;1.70;;;;;;;27.25;37.30;99860.03;4420371;32;20136;-68
2021/07/31 08:27:56;;;;;;;5.55;1.98;;;;;;;27.60;36.47;99868.53;4420725;32;20034;-68
2021/07/31 08:30:21;;;;;;;2.58;1.70;;;;;;;27.41;36.73;99873.16;4421187;32;20045;-68
2021/07/31 08:32:47;;;;;;;4.50;1.58;;;;;;;27.44;36.74;99869.09;4421442;32;20088;-68
2021/07/31 08:35:13;;;;;;;2.50;1.65;;;;;;;27.83;36.12;99871.44;4423322;32;20497;-68
2021/07/31 08:37:39;;;;;;;6.97;1.65;;;;;;;27.51;36.85;99877.78;4420226;32;20077;-68
2021/07/31 08:40:09;;;;;;;6.82;1.83;;;;;;;27.82;36.41;99873.53;4418846;32;20081;-68
2021/07/31 08:42:36;;;;;;;4.10;1.50;;;;;;;27.87;36.46;99880.50;4419021;32;20030;-68
2021/07/31 08:45:04;;;;;;;7.35;1.85;;;;;;;27.90;36.44;99874.34;4420135;32;20037;-68
2021/07/31 08:47:31;;;;;;;9.43;1.73;;;;;;;28.17;36.00;99866.78;4419665;32;20069;-68
2021/07/31 08:49:58;;;;;;;4.28;1.73;;;;;;;28.06;35.91;99872.97;4419298;32;20033;-69
2021/07/31 08:52:27;;;;;;;2.47;1.25;;;;;;;27.96;36.07;99877.81;4419654;32;20733;-69
2021/07/31 08:54:53;;;;;;;2.20;1.25;;;;;;;27.98;35.99;99880.13;4419129;32;20427;-68
2021/07/31 08:57:19;;;;;;;2.90;1.45;;;;;;;28.21;35.41;99870.06;4420932;32;20462;-69
2021/07/31 08:59:46;;;;;;;2.90;1.42;;;;;;;28.74;35.01;99870.66;4418377;32;20356;-69
2021/07/31 09:02:12;;;;;;;2.25;1.20;;;;;;;28.90;34.52;99880.06;4419935;32;20070;-69
2021/07/31 09:04:43;;;;;;;3.65;1.45;;;;;;;28.61;34.40;99879.59;4422347;32;20227;-69
2021/07/31 09:07:13;;;;;;;2.40;1.35;;;;;;;28.61;34.61;99873.03;4417319;32;20092;-69
2021/07/31 09:09:40;;;;;;;3.42;1.55;;;;;;;28.23;35.29;99881.81;4419256;32;20581;-69
2021/07/31 09:12:08;;;;;;;3.25;1.50;;;;;;;27.59;36.23;99884.34;4417650;32;20145;-68
2021/07/31 09:14:36;;;;;;;2.92;1.85;;;;;;;26.82;38.19;99890.50;4417027;32;20065;-68
2021/07/31 09:17:03;;;;;;;3.90;1.75;;;;;;;26.71;38.44;99882.19;4423256;32;20026;-68
2021/07/31 09:19:29;;;;;;;3.55;1.30;;;;;;;26.61;38.59;99878.28;4420227;32;20088;-69
2021/07/31 09:22:05;;;;;;;4.40;1.30;;;;;;;26.53;38.79;99885.34;4422955;32;20074;-69
2021/07/31 09:24:31;;;;;;;2.28;1.60;;;;;;;26.47;38.88;99884.75;4415697;32;20026;-69
2021/07/31 09:26:57;;;;;;;2.62;1.50;;;;;;;26.77;38.56;99887.78;4419304;32;20066;-69
2021/07/31 09:29:32;;;;;;;3.45;1.40;;;;;;;26.63;38.28;99887.16;4418530;32;20404;-69
2021/07/31 09:32:02;;;;;;;2.00;1.35;;;;;;;26.63;38.22;99898.69;4421833;32;20135;-69
2021/07/31 09:45:09;;;;;;;1.70;1.15;;;;;;;28.97;34.77;99888.69;3953479;32;15017400;-69
2021/07/31 09:47:36;;;;;;;2.78;1.40;;;;;;;28.97;34.77;99888.69;4385497;32;20064;-69
2021/07/31 09:50:03;;;;;;;3.53;1.40;;;;;;;28.69;34.45;99891.16;4399108;32;20046;-69
2021/07/31 09:52:29;;;;;;;3.10;1.27;;;;;;;29.27;33.72;99889.91;4396470;32;20424;-69
2021/07/31 09:54:57;;;;;;;2.08;1.30;;;;;;;29.25;33.35;99898.41;4396877;32;20088;-68
2021/07/31 09:57:25;;;;;;;3.75;1.40;;;;;;;29.37;32.99;99896.59;4399226;32;20070;-67
2021/07/31 09:59:51;;;;;;;3.78;1.50;;;;;;;29.20;33.43;99900.19;4399841;32;20063;-67
2021/07/31 10:02:20;;;;;;;2.62;1.30;;;;;;;28.81;33.76;99900.94;4399454;32;20133;-67
2021/07/31 10:04:47;;;;;;;5.37;1.90;;;;;;;28.29;34.94;99901.87;4399732;32;20169;-67
2021/07/31 10:07:14;;;;;;;3.72;1.70;;;;;;;28.58;34.49;99895.25;4400382;32;20042;-68
2021/07/31 10:09:49;;;;;;;4.07;1.50;;;;;;;29.19;33.77;99904.44;4399013;32;20061;-68
2021/07/31 10:12:17;;;;;;;3.25;1.60;;;;;;;28.54;34.07;99908.56;4397995;32;20193;-68
2021/07/31 10:14:44;;;;;;;3.72;1.70;;;;;;;28.64;34.37;99898.69;4400085;32;20039;-68
2021/07/31 10:17:11;;;;;;;2.25;1.80;;;;;;;28.70;34.40;99905.06;4399642;32;20049;-68
2021/07/31 10:19:39;;;;;;;4.03;1.60;;;;;;;29.15;33.86;99909.09;4400215;32;20062;-68
2021/07/31 10:22:04;;;;;;;3.75;1.58;;;;;;;28.53;34.73;99913.59;4397511;32;20144;-68
2021/07/31 10:27:29;;;;;;;6.03;1.60;;;;;;;27.92;35.58;99925.81;3988121;32;15022868;-69
2021/07/31 10:29:55;;;;;;;4.78;1.70;;;;;;;27.92;35.58;99925.81;4450020;32;20063;-68
2021/07/31 10:35:02;;;;;;;6.80;1.60;;;;;;;28.46;35.01;99917.28;3953447;32;15726575;-68
2021/07/31 10:45:32;;;;;;;3.83;1.65;;;;;;;29.97;32.26;99930.97;4003270;31;15016387;-69
2021/07/31 10:47:59;;;;;;;3.17;1.30;;;;;;;29.97;32.26;99930.97;4459535;32;20062;-69
2021/07/31 10:53:03;;;;;;;6.07;1.48;;;;;;;28.98;33.86;99925.00;3951805;32;15725436;-69
2021/07/31 11:01:13;;;;;;;7.03;1.58;;;;;;;28.46;35.76;99933.88;3984650;32;15032295;-69
2021/07/31 11:03:40;;;;;;;2.90;2.05;;;;;;;28.46;35.76;99933.88;4434315;32;20081;-69
2021/07/31 11:06:06;;;;;;;4.20;1.33;;;;;;;27.93;36.60;99936.81;4435506;32;20780;-69
2021/07/31 11:11:28;;;;;;;4.18;1.73;;;;;;;28.03;36.45;99937.78;3997280;31;15019159;-69
2021/07/31 11:13:55;;;;;;;2.72;1.37;;;;;;;28.03;36.45;99937.78;4454363;32;20080;-69
2021/07/31 11:16:23;;;;;;;2.03;1.50;;;;;;;27.85;36.52;99929.47;4454074;32;20087;-69
2021/07/31 11:18:54;;;;;;;2.33;1.50;;;;;;;27.84;36.44;99927.91;4453059;32;20403;-68
2021/07/31 11:29:09;;;;;;;2.42;1.52;;;;;;;29.96;32.54;99921.50;3979159;32;15025278;-69
2021/07/31 11:31:38;;;;;;;5.32;1.52;;;;;;;29.96;32.54;99921.50;4431910;32;20358;-69
2021/07/31 11:34:08;;;;;;;7.18;2.00;;;;;;;29.82;32.47;99913.69;4433539;32;20089;-69
2021/07/31 11:36:35;;;;;;;4.45;1.70;;;;;;;29.84;32.70;99920.44;4434045;32;20097;-69
2021/07/31 11:39:02;;;;;;;2.62;1.98;;;;;;;28.89;33.79;99919.06;4430873;32;20079;-69
2021/07/31 11:41:29;;;;;;;4.40;2.00;;;;;;;28.28;35.20;99924.22;4435290;32;20104;-69
2021/07/31 11:43:57;;;;;;;3.60;1.85;;;;;;;28.34;35.52;99924.03;4431211;32;20038;-67
2021/07/31 11:49:03;;;;;;;3.80;2.00;;;;;;;27.94;36.93;99932.56;3981965;32;15022877;-68
2021/07/31 11:51:29;;;;;;;6.07;2.00;;;;;;;27.94;36.93;99932.56;4436785;32;20085;-69
2021/07/31 11:53:55;;;;;;;2.50;1.80;;;;;;;27.37;37.64;99939.22;4435205;32;20109;-67
2021/07/31 11:56:23;;;;;;;3.08;1.95;;;;;;;27.20;38.38;99936.84;4435769;32;20033;-68
2021/07/31 11:58:53;;;;;;;4.00;2.05;;;;;;;27.33;38.18;99936.69;4433117;32;20550;-68
2021/07/31 12:01:20;;;;;;;3.97;2.30;;;;;;;27.63;37.65;99935.97;4435295;32;20328;-69
2021/07/31 12:06:40;;;;;;;8.43;2.17;;;;;;;27.52;37.97;99971.81;3947436;32;15723399;-69
2021/07/31 12:11:42;;;;;;;2.10;1.70;;;;;;;27.20;38.31;99977.28;3954282;32;15725580;-68
2021/07/31 12:14:43;;;;;;;3.17;2.03;;;;;;;27.20;38.31;99977.28;4430266;32;20103;-68
2021/07/31 12:19:47;;;;;;;2.50;1.77;;;;;;;28.48;35.87;99963.78;3953289;32;15724511;-69
2021/07/31 12:22:16;;;;;;;3.70;1.50;;;;;;;28.48;35.87;99963.78;4433060;32;20780;-67